Lastoursville, Gabon
Current Conditions -  °F | °C
As of 1:00 AM on Saturday 20 Dec 2014 (Local Time) from FCPD Reporting Station
Overcast Overcast  
Wind Chill: 77°   Ceiling: 4000
Heat Index: 78°   Visibility: 6mi
Dew Point: 73°   Wind: 7mph
Humidity: 89%   Direction: 200°SSW
Pressure: 29.94"   Gusts: NA
Location:  0.81°S, 12.71°E
Report Text: FCPD 200000Z 20006KT 9999 FEW015 OVC040 25/23 Q1014
Loading
Personal Weather Stations






























Interactive Weather Map New forecast layout! Learn more

10-Day Weather Forecast

Advertisements
Track Severe Weather on mobile